Skip Navigation LinksHome page > Weather > Current weather Skip Navigation Links

Current Weather

Kansas City Downtown, Kansas City, Mo.

For information only: do not use for flight planning or navigation.
Latest weather
Observation time Thursday, November 21, 2019 3:54 PM CST
Local time Thursday, November 21, 2019 4:27 PM CST
Flight conditions Marginal Visual Meteorological Conditions
Winds
Wind direction North-Northwest (330°)
Wind speed 15 mph
Visibility 10 mi.
Sky condition
Ceiling 2,000 ft. overcast
Cloud layer overcast 2,000 ft.
Temperature 42°F
Dewpoint 34°F
Altimeter 30.07 in.Hg
Derived measurements
Relative humidity 73%
Wind chill 35°F
Density altitude -447 ft.
Sea-level pressure 30.07 in.Hg
Remarks
Automated weather observing station with precipitation discriminator.
METAR KMKC 212154Z 33013KT 10SM OVC020 06/01 A3007 RMK AO2 SLP183 T00560011

Settings

Location code

InnerDrive.Weather 4.0.6770.0 Release CLR 4.0.30319.42000
Copyright ©2018 Inner Drive Technology. All rights reserved. Portions Copyright ©1986-2018 David Braverman.

Find weather

Site navigation


Skip Navigation Links

Place info

Page info

PayPal - The safer, easier way to pay online!

Return home.

Copyright ©2019 Inner Drive Technology. Purveyors of fine, hand-crafted computer software. Page printed 2019-11-21T22:27:13 UTC.